Time;durP1;ratioP1;P1;durP2;ratioP2;P2;SDS_P1;SDS_P2;PMS_P1;PMS_P2;Temp;Humidity;BMP_temperature;BMP_pressure;BME280_temperature;BME280_humidity;BME280_pressure;Samples;Min_cycle;Max_cycle;Signal;HPM_P1;HPM_P2
2022/01/10 00:00:08;;;;;;;37.08;12.98;;;;;;;;;;5027747;28;20308;-69
2022/01/10 00:02:34;;;;;;;30.48;12.68;;;;;;;;;;5017890;28;20022;-69
2022/01/10 00:04:59;;;;;;;30.25;12.80;;;;;;;;;;5025771;28;20030;-68
2022/01/10 00:07:25;;;;;;;29.83;11.75;;;;;;;;;;5027725;28;20025;-69
2022/01/10 00:09:50;;;;;;;27.58;12.40;;;;;;;;;;5025799;28;20438;-69
2022/01/10 00:12:15;;;;;;;26.98;12.23;;;;;;;;;;5028930;28;20372;-68
2022/01/10 00:14:41;;;;;;;29.70;12.00;;;;;;;;;;5024365;28;20135;-68
2022/01/10 00:17:06;;;;;;;28.50;12.30;;;;;;;;;;5030258;28;20467;-67
2022/01/10 00:19:32;;;;;;;29.92;12.25;;;;;;;;;;5028263;28;20029;-68
2022/01/10 00:21:57;;;;;;;30.60;12.20;;;;;;;;;;5029019;28;20033;-67
2022/01/10 00:24:23;;;;;;;27.50;11.80;;;;;;;;;;5030725;28;20037;-68
2022/01/10 00:26:48;;;;;;;25.05;11.70;;;;;;;;;;5030048;28;20029;-69
2022/01/10 00:29:14;;;;;;;33.20;12.80;;;;;;;;;;5027258;28;20038;-68
2022/01/10 00:31:40;;;;;;;30.77;12.32;;;;;;;;;;5030545;28;20049;-69
2022/01/10 00:34:05;;;;;;;27.95;11.57;;;;;;;;;;5030009;28;20061;-68
2022/01/10 00:36:31;;;;;;;25.23;10.98;;;;;;;;;;5027454;28;20445;-68
2022/01/10 00:38:56;;;;;;;30.00;11.20;;;;;;;;;;5015996;28;20029;-68
2022/01/10 00:41:22;;;;;;;29.48;11.35;;;;;;;;;;5030183;28;20033;-68
2022/01/10 00:43:50;;;;;;;28.15;11.32;;;;;;;;;;5028709;28;20041;-69
2022/01/10 00:46:15;;;;;;;29.42;12.07;;;;;;;;;;5029567;28;20463;-67
2022/01/10 00:48:40;;;;;;;31.73;11.30;;;;;;;;;;5029764;28;20042;-67
2022/01/10 00:51:06;;;;;;;23.10;11.60;;;;;;;;;;5029642;28;20159;-68
2022/01/10 00:53:31;;;;;;;24.83;11.50;;;;;;;;;;5015427;28;20042;-68
2022/01/10 00:55:57;;;;;;;29.05;11.32;;;;;;;;;;5028978;28;20156;-68
2022/01/10 00:58:23;;;;;;;22.15;11.13;;;;;;;;;;5033558;28;20021;-67
2022/01/10 01:00:48;;;;;;;30.00;11.68;;;;;;;;;;5030532;28;20084;-69
2022/01/10 01:03:14;;;;;;;25.55;10.30;;;;;;;;;;5032863;28;20041;-67
2022/01/10 01:05:42;;;;;;;24.40;10.80;;;;;;;;;;5032728;28;20041;-67
2022/01/10 01:08:09;;;;;;;29.77;12.43;;;;;;;;;;5031620;28;20475;-67
2022/01/10 01:13:12;;;;;;;33.38;12.30;;;;;;;;;;5030184;28;20041;-67
2022/01/10 01:18:45;;;;;;;26.73;12.35;;;;;;;;;;5032437;28;20522;-67
2022/01/10 01:26:39;;;;;;;34.70;14.27;;;;;;;;;;5033165;28;20102;-67
2022/01/10 01:29:07;;;;;;;34.20;13.98;;;;;;;;;;5031080;28;20060;-69
2022/01/10 01:31:33;;;;;;;32.20;13.48;;;;;;;;;;5030768;28;20037;-67
2022/01/10 01:33:59;;;;;;;31.77;13.10;;;;;;;;;;5032322;28;20034;-68
2022/01/10 01:36:26;;;;;;;37.28;14.23;;;;;;;;;;5032602;28;20077;-67
2022/01/10 01:38:53;;;;;;;40.35;16.75;;;;;;;;;;5020625;28;20033;-69
2022/01/10 01:43:48;;;;;;;35.30;15.88;;;;;;;;;;5032605;28;20040;-67
2022/01/10 01:46:14;;;;;;;39.97;15.57;;;;;;;;;;5032387;28;20094;-67
2022/01/10 01:48:39;;;;;;;33.38;14.25;;;;;;;;;;5031632;28;20398;-66
2022/01/10 01:51:05;;;;;;;38.30;14.27;;;;;;;;;;5012977;28;20037;-68
2022/01/10 01:53:31;;;;;;;38.03;15.30;;;;;;;;;;5023416;28;20037;-67
2022/01/10 01:56:00;;;;;;;35.70;14.25;;;;;;;;;;5031662;28;20399;-68
2022/01/10 01:58:26;;;;;;;35.20;15.10;;;;;;;;;;5032380;28;20033;-67
2022/01/10 02:00:54;;;;;;;40.72;15.27;;;;;;;;;;5033023;28;20122;-69
2022/01/10 02:03:19;;;;;;;31.15;14.23;;;;;;;;;;5027818;28;20045;-67
2022/01/10 02:05:44;;;;;;;36.75;14.27;;;;;;;;;;5024284;28;20041;-67
2022/01/10 02:08:10;;;;;;;32.60;14.18;;;;;;;;;;5031527;28;20068;-67
2022/01/10 02:10:37;;;;;;;33.10;15.15;;;;;;;;;;5029946;28;20029;-65
2022/01/10 02:13:03;;;;;;;34.08;15.50;;;;;;;;;;5029303;28;20033;-68
2022/01/10 02:15:49;;;;;;;40.58;16.13;;;;;;;;;;5031026;28;20053;-67
2022/01/10 02:18:18;;;;;;;36.25;15.68;;;;;;;;;;5031079;28;20033;-67
2022/01/10 02:20:45;;;;;;;35.65;15.68;;;;;;;;;;5032807;28;20083;-67
2022/01/10 02:23:11;;;;;;;41.55;15.93;;;;;;;;;;5031583;28;20067;-67
2022/01/10 02:25:37;;;;;;;40.38;16.25;;;;;;;;;;5030387;28;20025;-67
2022/01/10 02:28:03;;;;;;;41.17;16.13;;;;;;;;;;5031850;28;20033;-68
2022/01/10 02:30:29;;;;;;;38.13;15.95;;;;;;;;;;5030408;28;20044;-66
2022/01/10 02:32:57;;;;;;;40.25;15.10;;;;;;;;;;5033028;28;20029;-69
2022/01/10 02:35:27;;;;;;;37.90;14.68;;;;;;;;;;5033259;28;20029;-68
2022/01/10 02:37:55;;;;;;;36.27;15.83;;;;;;;;;;5033536;28;20503;-67
2022/01/10 02:40:23;;;;;;;38.38;15.10;;;;;;;;;;5030804;28;20294;-67
2022/01/10 02:42:49;;;;;;;45.58;16.15;;;;;;;;;;5030095;28;20121;-67
2022/01/10 02:45:15;;;;;;;38.67;16.25;;;;;;;;;;5031236;28;20108;-67
2022/01/10 02:47:41;;;;;;;37.47;15.20;;;;;;;;;;5025919;28;20128;-69
2022/01/10 02:50:07;;;;;;;35.95;14.73;;;;;;;;;;5030364;28;20040;-67
2022/01/10 02:52:36;;;;;;;44.03;16.45;;;;;;;;;;5032111;28;20178;-66
2022/01/10 02:55:02;;;;;;;43.70;16.60;;;;;;;;;;5029523;28;20486;-68
2022/01/10 02:57:28;;;;;;;53.50;18.08;;;;;;;;;;5030916;28;20034;-67
2022/01/10 02:59:54;;;;;;;43.53;17.00;;;;;;;;;;5030464;28;20061;-68
2022/01/10 03:02:22;;;;;;;44.95;16.80;;;;;;;;;;5023461;28;20524;-67
2022/01/10 03:04:48;;;;;;;42.72;17.05;;;;;;;;;;5034344;28;20537;-67
2022/01/10 03:07:17;;;;;;;44.40;16.23;;;;;;;;;;5031662;28;20034;-67
2022/01/10 03:09:43;;;;;;;42.20;16.35;;;;;;;;;;5029609;28;20041;-66
2022/01/10 03:12:09;;;;;;;34.75;15.73;;;;;;;;;;5028592;28;20025;-67
2022/01/10 03:14:36;;;;;;;38.53;16.48;;;;;;;;;;5030162;28;20136;-67
2022/01/10 03:17:01;;;;;;;45.15;16.05;;;;;;;;;;5029992;28;20033;-67
2022/01/10 03:19:26;;;;;;;44.55;16.40;;;;;;;;;;5030036;28;20045;-66
2022/01/10 03:21:52;;;;;;;48.10;16.98;;;;;;;;;;5031232;28;20034;-66
2022/01/10 03:24:17;;;;;;;47.13;18.13;;;;;;;;;;5029569;28;20025;-67
2022/01/10 03:26:43;;;;;;;46.08;18.08;;;;;;;;;;5017968;28;20030;-66
2022/01/10 03:29:08;;;;;;;34.92;16.35;;;;;;;;;;5019926;28;20486;-67
2022/01/10 03:31:34;;;;;;;44.22;16.20;;;;;;;;;;5031716;28;20030;-66
2022/01/10 03:33:59;;;;;;;41.78;15.63;;;;;;;;;;5029916;28;20036;-68
2022/01/10 03:36:24;;;;;;;36.58;15.93;;;;;;;;;;5028363;28;20033;-67
2022/01/10 03:38:50;;;;;;;41.13;15.52;;;;;;;;;;5029266;28;20368;-67
2022/01/10 03:41:15;;;;;;;47.55;17.02;;;;;;;;;;5024827;28;20083;-66
2022/01/10 03:43:41;;;;;;;38.25;16.67;;;;;;;;;;5029945;28;20051;-66
2022/01/10 03:46:06;;;;;;;38.97;15.20;;;;;;;;;;5029911;28;20108;-67
2022/01/10 03:48:32;;;;;;;35.30;15.65;;;;;;;;;;5018116;28;20040;-67
2022/01/10 03:50:58;;;;;;;32.78;14.75;;;;;;;;;;5030417;28;20460;-67
2022/01/10 03:53:23;;;;;;;36.25;14.57;;;;;;;;;;5027027;28;20032;-66
2022/01/10 03:55:48;;;;;;;35.45;14.77;;;;;;;;;;5029965;28;20032;-68
2022/01/10 03:58:14;;;;;;;36.03;14.23;;;;;;;;;;5029212;28;20021;-66
2022/01/10 04:00:40;;;;;;;46.50;15.70;;;;;;;;;;5029945;28;20475;-66
2022/01/10 04:03:07;;;;;;;35.60;14.38;;;;;;;;;;5028064;28;20087;-66
2022/01/10 04:05:34;;;;;;;37.05;14.93;;;;;;;;;;5030718;28;20041;-66
2022/01/10 04:08:00;;;;;;;39.25;14.50;;;;;;;;;;5029802;28;20470;-68
2022/01/10 04:10:25;;;;;;;47.17;17.98;;;;;;;;;;5027420;28;20168;-66
2022/01/10 04:12:50;;;;;;;56.20;18.45;;;;;;;;;;5029829;28;20060;-66
2022/01/10 04:15:16;;;;;;;61.30;17.58;;;;;;;;;;5027035;28;20510;-66
2022/01/10 04:17:42;;;;;;;52.53;18.08;;;;;;;;;;5029618;28;20069;-66
2022/01/10 04:20:08;;;;;;;57.88;18.67;;;;;;;;;;5029152;28;20086;-66
2022/01/10 04:22:33;;;;;;;51.47;18.05;;;;;;;;;;5030625;28;20379;-66
2022/01/10 04:25:00;;;;;;;51.85;17.90;;;;;;;;;;5029853;28;20033;-66
2022/01/10 04:27:26;;;;;;;63.95;18.33;;;;;;;;;;5030781;28;20033;-66
2022/01/10 04:29:51;;;;;;;60.15;18.58;;;;;;;;;;5029925;28;20126;-66
2022/01/10 04:32:17;;;;;;;62.42;18.38;;;;;;;;;;5034167;28;20025;-66
2022/01/10 04:34:44;;;;;;;67.63;18.42;;;;;;;;;;5034466;28;20095;-66
2022/01/10 04:37:09;;;;;;;57.17;17.17;;;;;;;;;;5034141;28;20107;-66
2022/01/10 04:39:35;;;;;;;45.08;16.02;;;;;;;;;;5034365;28;20471;-66
2022/01/10 04:42:00;;;;;;;37.80;14.77;;;;;;;;;;5034398;28;20029;-66
2022/01/10 04:44:26;;;;;;;36.33;14.63;;;;;;;;;;5027449;28;20029;-66
2022/01/10 04:46:51;;;;;;;46.65;16.30;;;;;;;;;;5034394;28;20037;-66
2022/01/10 04:49:26;;;;;;;40.83;15.95;;;;;;;;;;5034353;28;20033;-66
2022/01/10 04:51:53;;;;;;;43.55;15.70;;;;;;;;;;5023221;28;20386;-65
2022/01/10 04:54:18;;;;;;;47.38;16.33;;;;;;;;;;5033522;28;20029;-66
2022/01/10 04:56:44;;;;;;;54.50;18.17;;;;;;;;;;5032052;28;20423;-66
2022/01/10 04:59:10;;;;;;;52.10;17.40;;;;;;;;;;5033404;28;20423;-67
2022/01/10 05:01:36;;;;;;;50.58;17.50;;;;;;;;;;5029644;28;20033;-67
2022/01/10 05:04:02;;;;;;;59.60;18.40;;;;;;;;;;5033391;28;20471;-67
2022/01/10 05:06:27;;;;;;;66.13;25.00;;;;;;;;;;5034464;28;20434;-66
2022/01/10 05:08:53;;;;;;;67.90;22.00;;;;;;;;;;5033369;28;20132;-66
2022/01/10 05:11:19;;;;;;;57.20;19.45;;;;;;;;;;5013536;28;20029;-66
2022/01/10 05:13:45;;;;;;;52.55;18.20;;;;;;;;;;5031302;28;20030;-65
2022/01/10 05:16:12;;;;;;;58.15;20.00;;;;;;;;;;5033407;28;20057;-65
2022/01/10 05:18:39;;;;;;;47.17;17.80;;;;;;;;;;5029454;28;20065;-65
2022/01/10 05:21:04;;;;;;;50.08;17.67;;;;;;;;;;5019949;28;20037;-66
2022/01/10 05:23:29;;;;;;;46.08;17.63;;;;;;;;;;5031523;28;20398;-65
2022/01/10 05:25:55;;;;;;;48.42;16.00;;;;;;;;;;5033324;28;20036;-65
2022/01/10 05:28:21;;;;;;;55.40;20.45;;;;;;;;;;5032982;28;20035;-65
2022/01/10 05:30:48;;;;;;;44.55;18.08;;;;;;;;;;5031398;28;20030;-66
2022/01/10 05:33:14;;;;;;;44.60;17.48;;;;;;;;;;5032090;28;20171;-65
2022/01/10 05:35:40;;;;;;;51.42;17.05;;;;;;;;;;5034183;28;20120;-65
2022/01/10 05:38:06;;;;;;;48.38;16.15;;;;;;;;;;5034148;28;20115;-66
2022/01/10 05:40:32;;;;;;;43.53;16.77;;;;;;;;;;5038098;28;20063;-64
2022/01/10 05:42:57;;;;;;;45.10;17.02;;;;;;;;;;5053869;28;20048;-64
2022/01/10 05:45:23;;;;;;;56.08;16.70;;;;;;;;;;5039667;28;20044;-64
2022/01/10 05:47:49;;;;;;;45.58;16.90;;;;;;;;;;5034245;28;20027;-64
2022/01/10 05:50:19;;;;;;;43.35;15.65;;;;;;;;;;5032660;28;20068;-64
2022/01/10 05:52:46;;;;;;;45.70;16.73;;;;;;;;;;5034129;28;20382;-64
2022/01/10 05:55:12;;;;;;;44.63;17.33;;;;;;;;;;5031572;28;20049;-65
2022/01/10 05:57:37;;;;;;;49.40;17.92;;;;;;;;;;5033263;28;20033;-63
2022/01/10 06:00:06;;;;;;;44.58;17.42;;;;;;;;;;5033748;28;20044;-64
2022/01/10 06:02:31;;;;;;;49.13;17.35;;;;;;;;;;5033044;28;20037;-64
2022/01/10 06:04:59;;;;;;;51.88;17.52;;;;;;;;;;5033495;28;20039;-63
2022/01/10 06:07:24;;;;;;;55.22;18.25;;;;;;;;;;5032338;28;20502;-63
2022/01/10 06:09:50;;;;;;;55.53;18.92;;;;;;;;;;5033610;28;20065;-77
2022/01/10 06:12:15;;;;;;;63.03;20.80;;;;;;;;;;5032576;28;20478;-63
2022/01/10 06:14:40;;;;;;;61.13;19.02;;;;;;;;;;5033213;28;20061;-70
2022/01/10 06:17:06;;;;;;;62.97;19.23;;;;;;;;;;5033240;28;20394;-66
2022/01/10 06:19:31;;;;;;;54.70;18.55;;;;;;;;;;5032276;28;20041;-64
2022/01/10 06:21:57;;;;;;;49.85;17.08;;;;;;;;;;5031974;28;20519;-64
2022/01/10 06:24:22;;;;;;;63.88;20.90;;;;;;;;;;5030448;28;20492;-65
2022/01/10 06:26:48;;;;;;;52.10;19.77;;;;;;;;;;5032321;28;20029;-64
2022/01/10 06:29:13;;;;;;;47.38;19.58;;;;;;;;;;5030948;28;20040;-64
2022/01/10 06:31:39;;;;;;;48.45;19.15;;;;;;;;;;5031925;28;20044;-64
2022/01/10 06:34:04;;;;;;;53.17;18.95;;;;;;;;;;5033531;28;20029;-63
2022/01/10 06:36:29;;;;;;;43.95;17.33;;;;;;;;;;5031896;28;20037;-64
2022/01/10 06:38:55;;;;;;;50.90;18.33;;;;;;;;;;5032304;28;20044;-63
2022/01/10 06:41:20;;;;;;;38.28;17.27;;;;;;;;;;5031971;28;20044;-64
2022/01/10 06:43:45;;;;;;;43.03;16.88;;;;;;;;;;5033182;28;20026;-64
2022/01/10 06:46:11;;;;;;;44.95;17.00;;;;;;;;;;5031307;28;20459;-66
2022/01/10 06:48:36;;;;;;;41.58;17.08;;;;;;;;;;5032858;28;20084;-63
2022/01/10 06:51:02;;;;;;;49.67;17.52;;;;;;;;;;5033801;28;20392;-64
2022/01/10 06:53:27;;;;;;;55.13;18.38;;;;;;;;;;5010564;28;20030;-64
2022/01/10 06:55:53;;;;;;;53.15;20.30;;;;;;;;;;5026376;28;20406;-64
2022/01/10 06:58:18;;;;;;;52.78;20.13;;;;;;;;;;5032193;28;20036;-65
2022/01/10 07:00:44;;;;;;;48.80;19.45;;;;;;;;;;5030711;28;20103;-65
2022/01/10 07:03:10;;;;;;;45.90;18.90;;;;;;;;;;5032301;28;20517;-65
2022/01/10 07:05:35;;;;;;;54.58;20.10;;;;;;;;;;5031021;28;20037;-63
2022/01/10 07:08:01;;;;;;;46.13;18.60;;;;;;;;;;5031745;28;20407;-63
2022/01/10 07:10:27;;;;;;;48.10;19.73;;;;;;;;;;5031769;28;20146;-64
2022/01/10 07:12:53;;;;;;;52.92;19.52;;;;;;;;;;5034201;28;20128;-64
2022/01/10 07:15:26;;;;;;;56.10;18.90;;;;;;;;;;5070701;28;20395;-64
2022/01/10 07:17:54;;;;;;;56.25;19.83;;;;;;;;;;5071241;28;20494;-64
2022/01/10 07:20:21;;;;;;;52.88;20.35;;;;;;;;;;5047864;28;20110;-65
2022/01/10 07:22:46;;;;;;;50.03;19.05;;;;;;;;;;5029203;28;20037;-65
2022/01/10 07:25:12;;;;;;;46.60;18.80;;;;;;;;;;5053846;28;20033;-66
2022/01/10 07:27:37;;;;;;;53.75;19.50;;;;;;;;;;5067514;28;20123;-64
2022/01/10 07:30:04;;;;;;;46.70;18.35;;;;;;;;;;5057760;28;20033;-64
2022/01/10 07:32:30;;;;;;;48.45;19.02;;;;;;;;;;5045461;28;20029;-62
2022/01/10 07:34:59;;;;;;;47.10;18.23;;;;;;;;;;5052184;28;20048;-63
2022/01/10 07:37:24;;;;;;;45.45;18.70;;;;;;;;;;5048767;28;20115;-62
2022/01/10 07:39:50;;;;;;;53.03;18.98;;;;;;;;;;5046303;28;20060;-63
2022/01/10 07:42:15;;;;;;;47.55;20.00;;;;;;;;;;5047437;28;20095;-63
2022/01/10 07:44:41;;;;;;;46.83;19.02;;;;;;;;;;5056807;28;20068;-65
2022/01/10 07:47:08;;;;;;;49.45;21.10;;;;;;;;;;5063757;28;20045;-63
2022/01/10 07:49:34;;;;;;;60.88;20.77;;;;;;;;;;5047637;28;20526;-62
2022/01/10 07:52:00;;;;;;;61.13;20.58;;;;;;;;;;5052207;28;20040;-62
2022/01/10 07:54:25;;;;;;;64.03;20.50;;;;;;;;;;5067317;28;20028;-64
2022/01/10 07:56:51;;;;;;;55.70;19.40;;;;;;;;;;5053615;28;20038;-64
2022/01/10 07:59:22;;;;;;;54.67;19.08;;;;;;;;;;5046861;28;20036;-64
2022/01/10 08:01:49;;;;;;;50.65;19.63;;;;;;;;;;5061299;28;20041;-64
2022/01/10 08:04:14;;;;;;;48.42;18.95;;;;;;;;;;5047504;28;20041;-66
2022/01/10 08:06:40;;;;;;;46.53;20.40;;;;;;;;;;5051732;28;20052;-63
2022/01/10 08:09:06;;;;;;;57.95;20.55;;;;;;;;;;5067792;28;20033;-64
2022/01/10 08:11:32;;;;;;;44.55;19.20;;;;;;;;;;5064173;28;20115;-64
2022/01/10 08:13:57;;;;;;;47.70;20.10;;;;;;;;;;5067452;28;20140;-63
2022/01/10 08:16:23;;;;;;;44.60;19.25;;;;;;;;;;5046839;28;20041;-65
2022/01/10 08:18:48;;;;;;;54.05;19.85;;;;;;;;;;5045392;28;20466;-63
2022/01/10 08:21:14;;;;;;;53.42;20.50;;;;;;;;;;5048151;28;20044;-64
2022/01/10 08:23:39;;;;;;;49.97;20.02;;;;;;;;;;5047480;28;20104;-63
2022/01/10 08:26:08;;;;;;;54.78;21.35;;;;;;;;;;5043702;28;20120;-63
2022/01/10 08:28:37;;;;;;;60.58;21.95;;;;;;;;;;5035764;28;20021;-63
2022/01/10 08:31:04;;;;;;;69.22;22.98;;;;;;;;;;5037856;28;20021;-63
2022/01/10 08:33:30;;;;;;;63.15;22.73;;;;;;;;;;5033704;28;20044;-64
2022/01/10 08:35:55;;;;;;;54.55;22.00;;;;;;;;;;5043600;28;20029;-63
2022/01/10 08:38:21;;;;;;;55.85;21.88;;;;;;;;;;5033623;28;20030;-64
2022/01/10 08:40:47;;;;;;;55.83;21.90;;;;;;;;;;5033630;28;20035;-64
2022/01/10 08:43:12;;;;;;;65.72;22.67;;;;;;;;;;5044711;28;20029;-62
2022/01/10 08:45:39;;;;;;;65.60;23.23;;;;;;;;;;5044032;28;20399;-64
2022/01/10 08:48:06;;;;;;;61.08;23.55;;;;;;;;;;5038898;28;20032;-62
2022/01/10 08:50:33;;;;;;;60.38;22.20;;;;;;;;;;5050921;28;20128;-63
2022/01/10 08:53:02;;;;;;;57.47;22.23;;;;;;;;;;5045789;28;20116;-64
2022/01/10 08:55:28;;;;;;;55.00;21.27;;;;;;;;;;5042651;28;20033;-63
2022/01/10 08:57:53;;;;;;;55.78;20.38;;;;;;;;;;5050006;28;20025;-63
2022/01/10 09:00:19;;;;;;;54.35;21.08;;;;;;;;;;5045570;28;20025;-64
2022/01/10 09:02:45;;;;;;;54.85;20.88;;;;;;;;;;5052004;28;20036;-63
2022/01/10 09:05:11;;;;;;;55.55;21.52;;;;;;;;;;5053492;28;20033;-66
2022/01/10 09:07:36;;;;;;;56.38;21.83;;;;;;;;;;5035298;28;20242;-66
2022/01/10 09:10:04;;;;;;;72.00;23.48;;;;;;;;;;5048582;28;20061;-66
2022/01/10 09:12:31;;;;;;;56.72;21.45;;;;;;;;;;5028992;28;20123;-66
2022/01/10 09:14:57;;;;;;;62.33;22.38;;;;;;;;;;5034245;28;20069;-66
2022/01/10 09:17:22;;;;;;;61.53;22.38;;;;;;;;;;5031175;28;20382;-65
2022/01/10 09:19:48;;;;;;;70.30;22.70;;;;;;;;;;5025223;28;20397;-66
2022/01/10 09:22:14;;;;;;;60.45;23.65;;;;;;;;;;5031087;28;20036;-67
2022/01/10 09:24:39;;;;;;;80.78;24.40;;;;;;;;;;5031191;28;20043;-68
2022/01/10 09:27:05;;;;;;;73.60;25.38;;;;;;;;;;5042125;28;20101;-66
2022/01/10 09:29:31;;;;;;;68.85;25.33;;;;;;;;;;5042282;28;20452;-67
2022/01/10 09:31:56;;;;;;;86.68;26.15;;;;;;;;;;5036190;28;20033;-68
2022/01/10 09:34:22;;;;;;;79.57;25.38;;;;;;;;;;5034770;28;20124;-64
2022/01/10 09:36:47;;;;;;;76.03;24.80;;;;;;;;;;5050308;28;20386;-66
2022/01/10 09:39:13;;;;;;;77.78;24.50;;;;;;;;;;5027906;28;20038;-65
2022/01/10 09:41:39;;;;;;;76.55;25.73;;;;;;;;;;5012511;28;20133;-68
2022/01/10 09:44:06;;;;;;;82.53;26.23;;;;;;;;;;5025307;28;20121;-67
2022/01/10 09:46:33;;;;;;;81.97;26.30;;;;;;;;;;5030988;28;20056;-65
2022/01/10 09:49:00;;;;;;;80.28;24.27;;;;;;;;;;5034332;28;20037;-66
2022/01/10 09:51:27;;;;;;;70.78;24.83;;;;;;;;;;5031882;28;20550;-67
2022/01/10 09:53:54;;;;;;;75.18;23.38;;;;;;;;;;5028802;28;20152;-68
2022/01/10 09:56:20;;;;;;;65.55;23.67;;;;;;;;;;5012230;28;20029;-66
2022/01/10 09:58:46;;;;;;;74.63;24.17;;;;;;;;;;5037662;28;20033;-67
2022/01/10 10:01:14;;;;;;;68.43;24.50;;;;;;;;;;5052794;28;20162;-64
2022/01/10 10:03:43;;;;;;;73.93;25.90;;;;;;;;;;5040035;28;20032;-67
2022/01/10 10:06:09;;;;;;;70.50;24.10;;;;;;;;;;5014916;28;20033;-68
2022/01/10 10:08:37;;;;;;;64.20;22.80;;;;;;;;;;5029385;28;20391;-67
2022/01/10 10:11:03;;;;;;;59.63;23.92;;;;;;;;;;5032293;28;20485;-68
2022/01/10 10:13:29;;;;;;;56.88;22.17;;;;;;;;;;5032676;28;20088;-67
2022/01/10 10:15:55;;;;;;;67.50;23.45;;;;;;;;;;5030926;28;20482;-67
2022/01/10 10:18:21;;;;;;;64.93;23.20;;;;;;;;;;5041138;28;20120;-66
2022/01/10 10:20:46;;;;;;;58.25;20.65;;;;;;;;;;5051982;28;20450;-68
2022/01/10 10:23:15;;;;;;;60.92;22.52;;;;;;;;;;5039857;28;20495;-67
2022/01/10 10:25:53;;;;;;;56.50;21.60;;;;;;;;;;5011617;28;20030;-66
2022/01/10 10:28:19;;;;;;;59.63;22.25;;;;;;;;;;5029592;28;20045;-66
2022/01/10 10:30:45;;;;;;;59.55;21.67;;;;;;;;;;5050356;28;20035;-70
2022/01/10 10:33:12;;;;;;;51.53;20.60;;;;;;;;;;5050495;28;20029;-68
2022/01/10 10:35:37;;;;;;;56.10;21.85;;;;;;;;;;5051252;28;20519;-67
2022/01/10 10:38:03;;;;;;;43.25;19.80;;;;;;;;;;5042707;28;20871;-68
2022/01/10 10:40:29;;;;;;;50.58;20.15;;;;;;;;;;5032620;28;20056;-69
2022/01/10 10:42:58;;;;;;;46.10;19.98;;;;;;;;;;5040182;28;20025;-69
2022/01/10 10:45:25;;;;;;;51.50;21.02;;;;;;;;;;5038396;28;20048;-69
2022/01/10 10:47:51;;;;;;;47.25;19.35;;;;;;;;;;5071689;28;20512;-69
2022/01/10 10:50:17;;;;;;;51.15;19.75;;;;;;;;;;5068935;28;20029;-70
2022/01/10 10:52:43;;;;;;;47.28;19.00;;;;;;;;;;5054995;28;20035;-68
2022/01/10 10:55:13;;;;;;;45.63;18.20;;;;;;;;;;5052559;28;20445;-70
2022/01/10 10:57:40;;;;;;;44.50;18.77;;;;;;;;;;5053030;28;20458;-70
2022/01/10 11:00:11;;;;;;;49.03;20.02;;;;;;;;;;5052333;28;20047;-69
2022/01/10 11:02:37;;;;;;;46.67;18.92;;;;;;;;;;5070837;28;20536;-68
2022/01/10 11:05:05;;;;;;;47.22;17.75;;;;;;;;;;5070539;28;20044;-70
2022/01/10 11:07:34;;;;;;;38.83;16.92;;;;;;;;;;5050558;28;20036;-70
2022/01/10 11:10:00;;;;;;;37.70;15.93;;;;;;;;;;5051687;28;20064;-69
2022/01/10 11:12:27;;;;;;;43.67;16.45;;;;;;;;;;5035803;28;20064;-70
2022/01/10 11:14:54;;;;;;;34.70;15.07;;;;;;;;;;5035465;28;20048;-67
2022/01/10 11:17:20;;;;;;;37.30;16.48;;;;;;;;;;5053294;28;20120;-67
2022/01/10 11:20:12;;;;;;;39.28;15.90;;;;;;;;;;5067702;28;20429;-68
2022/01/10 11:22:42;;;;;;;31.98;14.98;;;;;;;;;;5044548;28;20142;-67
2022/01/10 11:25:30;;;;;;;40.78;16.08;;;;;;;;;;5033548;28;20546;-66
2022/01/10 11:28:08;;;;;;;31.75;14.80;;;;;;;;;;5042893;28;20029;-67
2022/01/10 11:30:44;;;;;;;43.20;15.75;;;;;;;;;;5051268;28;20039;-67
2022/01/10 11:33:11;;;;;;;39.40;15.63;;;;;;;;;;5056025;28;20115;-67
2022/01/10 11:35:43;;;;;;;34.15;14.40;;;;;;;;;;5070573;28;20078;-67
2022/01/10 11:38:28;;;;;;;34.97;15.40;;;;;;;;;;5047878;28;20029;-67
2022/01/10 11:41:16;;;;;;;29.33;13.65;;;;;;;;;;5070729;28;20051;-68
2022/01/10 11:43:42;;;;;;;31.92;14.35;;;;;;;;;;5068176;28;20052;-68
2022/01/10 11:46:23;;;;;;;33.25;14.25;;;;;;;;;;5054615;28;20082;-69
2022/01/10 11:48:50;;;;;;;30.67;14.38;;;;;;;;;;5049983;28;20040;-67
2022/01/10 11:51:19;;;;;;;33.55;13.95;;;;;;;;;;5059510;28;20044;-68
2022/01/10 11:53:47;;;;;;;35.35;14.60;;;;;;;;;;5033276;28;20402;-67
2022/01/10 11:56:23;;;;;;;35.60;13.65;;;;;;;;;;5036955;28;20037;-66
2022/01/10 11:59:12;;;;;;;29.08;13.65;;;;;;;;;;5050088;28;20087;-71
2022/01/10 12:02:03;;;;;;;31.45;12.77;;;;;;;;;;5047541;28;20071;-70
2022/01/10 12:04:32;;;;;;;28.15;13.25;;;;;;;;;;5051361;28;20055;-67
2022/01/10 12:06:57;;;;;;;32.33;14.68;;;;;;;;;;5051330;28;20083;-70
2022/01/10 12:09:23;;;;;;;27.80;12.77;;;;;;;;;;5049912;28;20032;-67
2022/01/10 12:11:51;;;;;;;32.42;13.18;;;;;;;;;;5042127;28;20021;-69
2022/01/10 12:14:17;;;;;;;30.13;14.30;;;;;;;;;;5054055;28;20367;-69
2022/01/10 12:16:43;;;;;;;33.25;13.23;;;;;;;;;;5052918;28;20037;-67
2022/01/10 12:19:09;;;;;;;30.27;12.48;;;;;;;;;;5052444;28;20039;-66
2022/01/10 12:21:35;;;;;;;34.17;14.45;;;;;;;;;;5046683;28;20464;-68
2022/01/10 12:24:00;;;;;;;28.00;12.25;;;;;;;;;;5034327;28;20038;-66
2022/01/10 12:26:27;;;;;;;29.65;14.27;;;;;;;;;;5034003;28;20036;-69
2022/01/10 12:28:58;;;;;;;25.92;11.15;;;;;;;;;;5032820;28;20029;-69
2022/01/10 12:31:24;;;;;;;;;;;;;;;;;;5034799;28;20459;-69
2022/01/10 12:33:52;;;;;;;30.30;13.73;;;;;;;;;;5036017;28;19971;-69
2022/01/10 12:36:19;;;;;;;36.28;15.77;;;;;;;;;;5054012;28;20053;-67
2022/01/10 12:38:48;;;;;;;22.70;10.40;;;;;;;;;;5052894;28;20447;-68
2022/01/10 12:41:14;;;;;;;26.25;11.77;;;;;;;;;;5054130;28;20021;-67
2022/01/10 12:43:39;;;;;;;23.70;10.80;;;;;;;;;;5035130;28;20049;-67
2022/01/10 12:46:05;;;;;;;25.33;11.18;;;;;;;;;;5035193;28;20064;-69
2022/01/10 12:48:30;;;;;;;24.33;10.05;;;;;;;;;;5057597;28;20044;-70
2022/01/10 12:50:56;;;;;;;33.47;11.68;;;;;;;;;;5053845;28;20029;-70
2022/01/10 12:53:22;;;;;;;24.02;11.38;;;;;;;;;;5056715;28;20024;-68
2022/01/10 12:55:49;;;;;;;24.48;11.85;;;;;;;;;;5066169;28;20021;-68
2022/01/10 12:58:14;;;;;;;30.38;10.52;;;;;;;;;;5054664;28;20033;-68
2022/01/10 13:00:40;;;;;;;29.65;11.20;;;;;;;;;;5059418;28;20402;-70
2022/01/10 13:03:06;;;;;;;23.30;9.27;;;;;;;;;;5042955;28;20091;-65
2022/01/10 13:05:33;;;;;;;22.13;8.82;;;;;;;;;;5054256;28;20029;-66
2022/01/10 13:08:00;;;;;;;22.98;8.75;;;;;;;;;;5062943;28;20039;-67
2022/01/10 13:10:33;;;;;;;25.30;10.18;;;;;;;;;;5052403;28;20079;-67
2022/01/10 13:13:01;;;;;;;18.70;10.05;;;;;;;;;;5053746;28;20120;-64
2022/01/10 13:15:36;;;;;;;29.98;11.02;;;;;;;;;;5071891;28;20025;-66
2022/01/10 13:18:03;;;;;;;22.30;9.85;;;;;;;;;;5055362;28;20608;-63
2022/01/10 13:20:35;;;;;;;24.08;11.27;;;;;;;;;;5071010;28;20071;-68
2022/01/10 13:23:09;;;;;;;25.17;9.65;;;;;;;;;;5071714;28;20466;-65
2022/01/10 13:25:44;;;;;;;21.60;9.15;;;;;;;;;;5056808;28;20062;-65
2022/01/10 13:28:12;;;;;;;21.42;8.80;;;;;;;;;;5062394;28;20029;-65
2022/01/10 13:30:48;;;;;;;22.30;9.40;;;;;;;;;;5066044;28;20036;-65
2022/01/10 13:33:14;;;;;;;20.92;8.48;;;;;;;;;;5041390;28;20137;-64
2022/01/10 13:35:40;;;;;;;23.50;9.02;;;;;;;;;;5057075;28;20032;-65
2022/01/10 13:38:15;;;;;;;21.98;8.88;;;;;;;;;;5071804;28;20450;-64
2022/01/10 13:40:46;;;;;;;22.13;9.20;;;;;;;;;;5064679;28;20116;-65
2022/01/10 13:43:17;;;;;;;20.13;8.52;;;;;;;;;;5056466;28;20060;-66
2022/01/10 13:45:51;;;;;;;22.77;8.98;;;;;;;;;;5032153;28;20045;-66
2022/01/10 13:48:31;;;;;;;21.90;10.30;;;;;;;;;;5049687;28;20543;-66
2022/01/10 13:50:58;;;;;;;20.92;8.40;;;;;;;;;;5060999;28;20064;-64
2022/01/10 13:53:29;;;;;;;19.15;7.65;;;;;;;;;;5059733;28;20036;-66
2022/01/10 13:56:11;;;;;;;20.08;8.32;;;;;;;;;;5060657;28;20086;-66
2022/01/10 13:58:43;;;;;;;24.20;8.43;;;;;;;;;;5052523;28;20041;-64
2022/01/10 14:01:14;;;;;;;23.40;8.38;;;;;;;;;;5061866;28;20420;-65
2022/01/10 14:03:40;;;;;;;20.70;7.65;;;;;;;;;;5057390;28;20033;-64
2022/01/10 14:06:32;;;;;;;23.05;7.22;;;;;;;;;;5038364;28;20029;-65
2022/01/10 14:09:05;;;;;;;18.00;6.68;;;;;;;;;;5043095;28;20045;-65
2022/01/10 14:11:32;;;;;;;21.00;6.97;;;;;;;;;;5041278;28;20471;-65
2022/01/10 14:14:00;;;;;;;15.63;6.35;;;;;;;;;;5033871;28;20049;-65
2022/01/10 14:16:36;;;;;;;18.85;6.53;;;;;;;;;;5032891;28;20048;-65
2022/01/10 14:19:03;;;;;;;18.80;6.50;;;;;;;;;;5045571;28;20030;-65
2022/01/10 14:21:29;;;;;;;22.45;6.95;;;;;;;;;;5044023;28;20033;-65
2022/01/10 14:23:54;;;;;;;19.85;7.03;;;;;;;;;;5034596;28;20465;-65
2022/01/10 14:26:20;;;;;;;16.95;6.25;;;;;;;;;;5049686;28;20373;-65
2022/01/10 14:28:46;;;;;;;17.45;5.72;;;;;;;;;;5064151;28;20372;-64
2022/01/10 14:31:13;;;;;;;19.35;6.18;;;;;;;;;;5059935;28;20031;-67